Time;durP1;ratioP1;P1;durP2;ratioP2;P2;SDS_P1;SDS_P2;PMS_P1;PMS_P2;Temp;Humidity;BMP_temperature;BMP_pressure;BME280_temperature;BME280_humidity;BME280_pressure;Samples;Min_cycle;Max_cycle;Signal;HPM_P1;HPM_P2
2021/10/04 00:01:53;;;;;;;6.50;1.53;;;;;;;;;;5051496;28;20942;-77
2021/10/04 00:04:18;;;;;;;1.80;1.10;;;;;;;;;;5053174;28;20679;-75
2021/10/04 00:06:43;;;;;;;4.73;1.40;;;;;;;;;;5050068;28;20733;-76
2021/10/04 00:09:08;;;;;;;2.83;1.20;;;;;;;;;;5052891;28;20207;-76
2021/10/04 00:11:34;;;;;;;8.20;1.43;;;;;;;;;;5060049;28;20209;-76
2021/10/04 00:13:59;;;;;;;3.43;1.20;;;;;;;;;;5066791;28;20203;-76
2021/10/04 00:16:24;;;;;;;4.70;1.13;;;;;;;;;;5052855;28;20173;-76
2021/10/04 00:18:49;;;;;;;2.57;1.00;;;;;;;;;;5053423;28;20173;-76
2021/10/04 00:21:14;;;;;;;2.97;0.97;;;;;;;;;;5053700;28;20543;-77
2021/10/04 00:23:40;;;;;;;6.63;1.13;;;;;;;;;;5052717;28;20185;-77
2021/10/04 00:26:05;;;;;;;3.50;1.27;;;;;;;;;;5057767;28;20204;-78
2021/10/04 00:28:30;;;;;;;3.97;1.20;;;;;;;;;;5032310;28;20194;-76
2021/10/04 00:30:56;;;;;;;4.77;1.23;;;;;;;;;;5054665;28;20201;-76
2021/10/04 00:33:21;;;;;;;4.72;1.20;;;;;;;;;;5046866;28;20184;-75
2021/10/04 00:35:46;;;;;;;5.07;1.37;;;;;;;;;;5048354;28;20642;-76
2021/10/04 00:38:11;;;;;;;4.60;1.27;;;;;;;;;;5046669;28;20383;-75
2021/10/04 00:40:36;;;;;;;2.37;1.00;;;;;;;;;;5052552;28;20316;-77
2021/10/04 00:43:02;;;;;;;4.53;1.40;;;;;;;;;;5056055;28;20193;-75
2021/10/04 00:45:28;;;;;;;4.10;1.10;;;;;;;;;;5053921;28;20213;-76
2021/10/04 00:47:53;;;;;;;2.20;1.10;;;;;;;;;;5058786;28;20173;-77
2021/10/04 00:50:20;;;;;;;3.70;1.00;;;;;;;;;;5059465;28;20203;-76
2021/10/04 00:52:45;;;;;;;4.67;1.97;;;;;;;;;;5076001;28;20183;-77
2021/10/04 00:55:11;;;;;;;4.00;1.30;;;;;;;;;;5055375;28;20181;-76
2021/10/04 00:57:37;;;;;;;1.97;1.10;;;;;;;;;;5070191;28;20638;-77
2021/10/04 01:00:04;;;;;;;3.57;1.30;;;;;;;;;;5063463;28;20209;-77
2021/10/04 01:02:30;;;;;;;2.93;1.00;;;;;;;;;;5058020;28;20192;-76
2021/10/04 01:04:55;;;;;;;6.22;1.08;;;;;;;;;;5055519;28;20182;-75
2021/10/04 01:07:20;;;;;;;3.40;1.20;;;;;;;;;;5056319;28;20180;-77
2021/10/04 01:09:45;;;;;;;6.30;1.57;;;;;;;;;;5050940;28;20521;-75
2021/10/04 01:12:10;;;;;;;5.72;1.23;;;;;;;;;;5037949;28;20184;-77
2021/10/04 01:14:36;;;;;;;2.90;1.03;;;;;;;;;;5056287;28;20208;-77
2021/10/04 01:17:01;;;;;;;5.00;1.17;;;;;;;;;;5052672;28;20888;-77
2021/10/04 01:19:26;;;;;;;4.20;1.10;;;;;;;;;;5049868;28;20190;-77
2021/10/04 01:21:51;;;;;;;6.70;1.30;;;;;;;;;;5066923;28;20181;-75
2021/10/04 01:24:17;;;;;;;2.77;1.10;;;;;;;;;;5068740;28;20196;-76
2021/10/04 01:26:43;;;;;;;1.53;0.80;;;;;;;;;;5053244;28;20170;-76
2021/10/04 01:29:08;;;;;;;2.30;1.13;;;;;;;;;;5069215;28;20689;-76
2021/10/04 01:31:33;;;;;;;3.83;1.20;;;;;;;;;;5067476;28;20212;-76
2021/10/04 01:33:58;;;;;;;4.93;1.20;;;;;;;;;;5065390;28;20181;-77
2021/10/04 01:36:27;;;;;;;5.87;1.40;;;;;;;;;;5050811;28;20173;-76
2021/10/04 01:38:53;;;;;;;3.93;1.10;;;;;;;;;;5072265;28;20344;-77
2021/10/04 01:41:18;;;;;;;4.47;1.20;;;;;;;;;;5087800;22;20323;-73
2021/10/04 01:43:43;;;;;;;3.90;1.10;;;;;;;;;;5074036;28;20237;-74
2021/10/04 01:46:09;;;;;;;4.80;1.07;;;;;;;;;;5077369;28;20172;-73
2021/10/04 01:48:34;;;;;;;2.40;1.00;;;;;;;;;;5087182;28;20724;-73
2021/10/04 01:50:59;;;;;;;4.97;1.70;;;;;;;;;;5087497;28;20223;-73
2021/10/04 01:53:24;;;;;;;5.40;1.30;;;;;;;;;;5086819;28;20172;-73
2021/10/04 01:55:50;;;;;;;2.83;1.00;;;;;;;;;;5087920;28;20172;-73
2021/10/04 01:58:15;;;;;;;2.70;1.35;;;;;;;;;;5084676;28;20268;-73
2021/10/04 02:00:40;;;;;;;1.75;1.05;;;;;;;;;;5089691;28;20599;-73
2021/10/04 02:03:06;;;;;;;2.50;1.00;;;;;;;;;;5086578;28;20173;-73
2021/10/04 02:05:32;;;;;;;6.63;1.80;;;;;;;;;;5091584;28;20180;-73
2021/10/04 02:07:58;;;;;;;5.20;1.27;;;;;;;;;;5081934;28;20255;-73
2021/10/04 02:10:24;;;;;;;3.92;1.23;;;;;;;;;;5088894;28;20200;-73
2021/10/04 02:12:50;;;;;;;3.83;1.00;;;;;;;;;;5083088;28;20177;-73
2021/10/04 02:15:15;;;;;;;3.45;1.27;;;;;;;;;;5090526;28;20221;-74
2021/10/04 02:17:40;;;;;;;4.05;1.15;;;;;;;;;;5085391;28;20172;-73
2021/10/04 02:20:07;;;;;;;4.17;1.10;;;;;;;;;;5074194;28;20228;-73
2021/10/04 02:22:33;;;;;;;4.30;1.20;;;;;;;;;;5081573;28;20271;-73
2021/10/04 02:24:58;;;;;;;4.60;2.00;;;;;;;;;;5088510;28;20272;-73
2021/10/04 02:27:23;;;;;;;6.93;1.50;;;;;;;;;;5089165;28;20191;-73
2021/10/04 02:29:48;;;;;;;4.70;1.20;;;;;;;;;;5089580;28;20256;-73
2021/10/04 02:32:13;;;;;;;2.78;1.25;;;;;;;;;;5085927;28;20669;-73
2021/10/04 02:34:39;;;;;;;3.87;1.27;;;;;;;;;;5085914;28;20207;-73
2021/10/04 02:37:04;;;;;;;4.57;1.13;;;;;;;;;;5086074;28;20188;-73
2021/10/04 02:39:29;;;;;;;4.50;1.50;;;;;;;;;;5085761;28;20197;-73
2021/10/04 02:41:54;;;;;;;3.65;1.23;;;;;;;;;;5087753;28;20184;-74
2021/10/04 02:44:19;;;;;;;5.13;1.20;;;;;;;;;;5088484;28;20293;-73
2021/10/04 02:46:45;;;;;;;3.10;1.30;;;;;;;;;;5081899;28;20172;-72
2021/10/04 02:49:10;;;;;;;9.53;1.60;;;;;;;;;;5081987;28;20176;-73
2021/10/04 02:51:36;;;;;;;4.80;1.70;;;;;;;;;;5085448;28;20296;-73
2021/10/04 02:54:01;;;;;;;3.10;1.53;;;;;;;;;;5086756;28;20187;-72
2021/10/04 02:56:26;;;;;;;4.83;1.57;;;;;;;;;;5083831;28;20172;-72
2021/10/04 02:58:52;;;;;;;5.47;1.70;;;;;;;;;;5084462;28;20266;-72
2021/10/04 03:01:17;;;;;;;3.60;1.40;;;;;;;;;;5081958;28;20210;-74
2021/10/04 03:03:42;;;;;;;4.53;1.03;;;;;;;;;;5083765;28;20177;-72
2021/10/04 03:06:07;;;;;;;2.73;1.47;;;;;;;;;;5075107;28;20279;-73
2021/10/04 03:08:32;;;;;;;4.07;1.83;;;;;;;;;;5086795;28;20513;-73
2021/10/04 03:10:57;;;;;;;4.10;1.40;;;;;;;;;;5085280;28;20207;-73
2021/10/04 03:13:23;;;;;;;3.80;1.70;;;;;;;;;;5080702;28;20180;-72
2021/10/04 03:15:48;;;;;;;5.30;1.80;;;;;;;;;;5087797;28;20559;-72
2021/10/04 03:18:13;;;;;;;6.00;2.23;;;;;;;;;;5086812;28;20637;-72
2021/10/04 03:20:39;;;;;;;3.17;1.70;;;;;;;;;;5086447;28;20192;-73
2021/10/04 03:23:05;;;;;;;2.50;1.73;;;;;;;;;;5089215;28;20591;-72
2021/10/04 03:25:30;;;;;;;6.03;1.60;;;;;;;;;;5085091;28;20176;-73
2021/10/04 03:27:56;;;;;;;3.10;1.90;;;;;;;;;;5086416;28;20641;-73
2021/10/04 03:30:21;;;;;;;3.40;1.50;;;;;;;;;;5082767;28;20269;-73
2021/10/04 03:32:46;;;;;;;3.70;2.40;;;;;;;;;;5080009;28;20173;-73
2021/10/04 03:35:12;;;;;;;4.10;1.80;;;;;;;;;;5079111;28;20176;-71
2021/10/04 03:37:37;;;;;;;6.83;1.90;;;;;;;;;;5069546;28;20172;-72
2021/10/04 03:40:03;;;;;;;3.40;1.57;;;;;;;;;;5084550;28;20337;-71
2021/10/04 03:42:28;;;;;;;3.47;1.60;;;;;;;;;;5084819;28;20615;-71
2021/10/04 03:44:54;;;;;;;5.57;1.60;;;;;;;;;;5086911;28;20194;-72
2021/10/04 03:47:19;;;;;;;3.53;1.77;;;;;;;;;;5085611;28;20176;-71
2021/10/04 03:49:44;;;;;;;2.43;1.60;;;;;;;;;;5085488;28;20283;-72
2021/10/04 03:52:09;;;;;;;5.73;1.90;;;;;;;;;;5087078;28;20176;-71
2021/10/04 03:54:34;;;;;;;4.03;1.80;;;;;;;;;;5089543;28;20263;-71
2021/10/04 03:56:59;;;;;;;7.00;2.60;;;;;;;;;;5087205;28;20180;-72
2021/10/04 03:59:25;;;;;;;3.87;2.00;;;;;;;;;;5088286;28;20176;-72
2021/10/04 04:01:50;;;;;;;4.53;2.00;;;;;;;;;;5083619;28;20180;-72
2021/10/04 04:04:15;;;;;;;3.77;2.17;;;;;;;;;;5085801;28;20256;-72
2021/10/04 04:06:41;;;;;;;5.13;2.10;;;;;;;;;;5088644;28;20202;-70
2021/10/04 04:09:06;;;;;;;4.77;2.00;;;;;;;;;;5085522;28;20172;-72
2021/10/04 04:11:31;;;;;;;5.53;2.47;;;;;;;;;;5087025;28;20203;-72
2021/10/04 04:13:56;;;;;;;5.40;2.30;;;;;;;;;;5086404;28;20439;-72
2021/10/04 04:16:22;;;;;;;2.20;1.90;;;;;;;;;;5090533;28;20663;-71
2021/10/04 04:18:47;;;;;;;4.70;2.73;;;;;;;;;;5094333;28;20181;-71
2021/10/04 04:21:12;;;;;;;5.33;2.37;;;;;;;;;;5091065;28;20202;-72
2021/10/04 04:23:37;;;;;;;4.73;2.30;;;;;;;;;;5093384;28;20270;-72
2021/10/04 04:26:03;;;;;;;7.73;3.00;;;;;;;;;;5092158;28;20183;-72
2021/10/04 04:28:29;;;;;;;8.33;2.43;;;;;;;;;;5092805;28;20706;-72
2021/10/04 04:30:54;;;;;;;5.77;2.63;;;;;;;;;;5084743;28;20196;-72
2021/10/04 04:33:19;;;;;;;6.47;2.40;;;;;;;;;;5089321;28;20267;-71
2021/10/04 04:35:45;;;;;;;5.87;2.50;;;;;;;;;;5086546;28;20561;-72
2021/10/04 04:38:10;;;;;;;6.03;2.43;;;;;;;;;;5084008;28;20223;-72
2021/10/04 04:40:35;;;;;;;4.17;2.73;;;;;;;;;;5091300;28;20211;-72
2021/10/04 04:43:00;;;;;;;6.07;3.07;;;;;;;;;;5091308;28;20535;-72
2021/10/04 04:45:25;;;;;;;9.60;3.47;;;;;;;;;;5087915;28;20180;-72
2021/10/04 04:47:51;;;;;;;10.87;3.03;;;;;;;;;;5089322;28;20184;-71
2021/10/04 04:50:17;;;;;;;6.87;2.77;;;;;;;;;;5091900;28;20586;-71
2021/10/04 04:52:42;;;;;;;7.87;3.30;;;;;;;;;;5084374;28;20543;-72
2021/10/04 04:55:07;;;;;;;3.93;3.23;;;;;;;;;;5079770;28;20176;-71
2021/10/04 04:57:33;;;;;;;6.23;3.70;;;;;;;;;;5079602;28;20605;-72
2021/10/04 04:59:58;;;;;;;8.03;4.10;;;;;;;;;;5084645;28;20279;-72
2021/10/04 05:02:24;;;;;;;10.87;3.60;;;;;;;;;;5079352;28;20712;-71
2021/10/04 05:04:49;;;;;;;8.13;3.77;;;;;;;;;;5071677;28;20180;-71
2021/10/04 05:07:14;;;;;;;7.23;3.50;;;;;;;;;;5083608;28;20180;-72
2021/10/04 05:09:39;;;;;;;6.83;3.33;;;;;;;;;;5089030;28;20253;-71
2021/10/04 05:12:05;;;;;;;9.30;3.50;;;;;;;;;;5092078;28;20577;-71
2021/10/04 05:14:30;;;;;;;5.83;2.90;;;;;;;;;;5089986;28;20195;-72
2021/10/04 05:16:55;;;;;;;6.40;3.13;;;;;;;;;;5087440;28;20240;-72
2021/10/04 05:19:20;;;;;;;7.53;3.27;;;;;;;;;;5087242;28;20164;-72
2021/10/04 05:21:46;;;;;;;6.87;2.87;;;;;;;;;;5086929;28;20176;-72
2021/10/04 05:24:12;;;;;;;7.20;2.80;;;;;;;;;;5088669;28;20187;-71
2021/10/04 05:26:37;;;;;;;2.90;2.30;;;;;;;;;;5089202;28;20176;-72
2021/10/04 05:29:02;;;;;;;7.10;3.17;;;;;;;;;;5082222;28;20187;-71
2021/10/04 05:31:27;;;;;;;5.63;2.80;;;;;;;;;;5087752;28;20203;-71
2021/10/04 05:33:53;;;;;;;8.03;3.37;;;;;;;;;;5083473;28;20183;-71
2021/10/04 05:36:18;;;;;;;5.47;2.47;;;;;;;;;;5090144;28;20554;-72
2021/10/04 05:38:43;;;;;;;7.37;2.40;;;;;;;;;;5091532;28;20255;-71
2021/10/04 05:41:09;;;;;;;6.63;2.70;;;;;;;;;;5080050;28;20281;-72
2021/10/04 05:43:35;;;;;;;8.47;2.87;;;;;;;;;;5084803;28;20184;-72
2021/10/04 05:46:01;;;;;;;4.03;2.20;;;;;;;;;;5087219;28;20541;-71
2021/10/04 05:48:26;;;;;;;9.10;2.57;;;;;;;;;;5087700;28;20646;-72
2021/10/04 05:50:51;;;;;;;7.40;3.00;;;;;;;;;;5088446;28;20451;-71
2021/10/04 05:53:17;;;;;;;5.17;2.40;;;;;;;;;;5090819;28;20168;-72
2021/10/04 05:55:43;;;;;;;5.70;2.80;;;;;;;;;;5086173;28;20254;-72
2021/10/04 05:58:08;;;;;;;6.50;2.60;;;;;;;;;;5085261;28;20275;-72
2021/10/04 06:00:33;;;;;;;7.70;2.73;;;;;;;;;;5089245;28;20275;-71
2021/10/04 06:02:58;;;;;;;4.63;2.53;;;;;;;;;;5089339;28;20206;-72
2021/10/04 06:05:24;;;;;;;7.33;2.63;;;;;;;;;;5086507;28;20184;-71
2021/10/04 06:07:49;;;;;;;7.87;2.77;;;;;;;;;;5084702;28;20519;-72
2021/10/04 06:10:16;;;;;;;4.23;2.33;;;;;;;;;;5086392;28;20215;-72
2021/10/04 06:12:41;;;;;;;6.03;2.30;;;;;;;;;;5085018;28;20179;-72
2021/10/04 06:15:07;;;;;;;6.43;2.60;;;;;;;;;;5086571;28;20552;-71
2021/10/04 06:17:34;;;;;;;5.10;2.80;;;;;;;;;;5085918;28;20204;-72
2021/10/04 06:19:59;;;;;;;3.13;2.53;;;;;;;;;;5089053;28;20200;-72
2021/10/04 06:22:24;;;;;;;4.83;2.30;;;;;;;;;;5085498;28;20191;-72
2021/10/04 06:24:50;;;;;;;4.43;2.57;;;;;;;;;;5089521;28;20466;-72
2021/10/04 06:27:16;;;;;;;10.23;2.43;;;;;;;;;;5091816;28;20265;-71
2021/10/04 06:29:42;;;;;;;5.97;2.20;;;;;;;;;;5086283;28;20232;-72
2021/10/04 06:32:07;;;;;;;8.30;3.17;;;;;;;;;;5088287;28;20258;-71
2021/10/04 06:34:32;;;;;;;2.67;1.90;;;;;;;;;;5088987;28;20245;-71
2021/10/04 06:36:57;;;;;;;3.63;1.80;;;;;;;;;;5089853;28;20522;-72
2021/10/04 06:39:22;;;;;;;3.50;2.00;;;;;;;;;;5081928;28;20192;-73
2021/10/04 06:41:48;;;;;;;4.77;2.00;;;;;;;;;;5093363;28;20188;-71
2021/10/04 06:44:13;;;;;;;4.60;2.40;;;;;;;;;;5081250;28;20177;-71
2021/10/04 06:46:38;;;;;;;5.73;1.73;;;;;;;;;;5079076;28;20180;-71
2021/10/04 06:49:04;;;;;;;5.30;2.30;;;;;;;;;;5078621;28;20176;-73
2021/10/04 06:51:30;;;;;;;4.07;2.10;;;;;;;;;;5080935;28;20219;-72
2021/10/04 06:53:55;;;;;;;3.07;2.23;;;;;;;;;;5077905;28;20920;-72
2021/10/04 06:56:20;;;;;;;8.57;2.27;;;;;;;;;;5084048;28;20208;-73
2021/10/04 06:58:45;;;;;;;3.83;1.90;;;;;;;;;;5084516;28;20180;-73
2021/10/04 07:01:10;;;;;;;7.60;3.93;;;;;;;;;;5083200;28;20244;-71
2021/10/04 07:03:36;;;;;;;4.93;1.80;;;;;;;;;;5088592;28;20172;-73
2021/10/04 07:06:01;;;;;;;6.23;1.83;;;;;;;;;;5079762;28;20649;-71
2021/10/04 07:08:26;;;;;;;4.97;1.87;;;;;;;;;;5090248;28;20180;-70
2021/10/04 07:10:52;;;;;;;3.40;1.90;;;;;;;;;;5084040;28;20224;-70
2021/10/04 07:13:17;;;;;;;6.10;2.10;;;;;;;;;;5089058;28;20245;-71
2021/10/04 07:15:42;;;;;;;4.47;1.90;;;;;;;;;;5086882;28;20225;-72
2021/10/04 07:18:08;;;;;;;7.23;2.07;;;;;;;;;;5090953;28;20183;-71
2021/10/04 07:20:34;;;;;;;4.85;2.05;;;;;;;;;;5087761;28;20442;-71
2021/10/04 07:23:00;;;;;;;5.13;1.77;;;;;;;;;;5089354;28;20637;-72
2021/10/04 07:25:25;;;;;;;5.10;1.63;;;;;;;;;;5091923;28;20544;-70
2021/10/04 07:27:51;;;;;;;2.35;1.67;;;;;;;;;;5088153;28;20267;-73
2021/10/04 07:30:16;;;;;;;5.65;1.58;;;;;;;;;;5084280;28;20826;-70
2021/10/04 07:32:41;;;;;;;6.30;2.30;;;;;;;;;;5088713;28;20203;-72
2021/10/04 07:35:07;;;;;;;5.63;1.75;;;;;;;;;;5082640;28;20238;-72
2021/10/04 07:37:32;;;;;;;3.63;1.55;;;;;;;;;;5091118;28;20202;-73
2021/10/04 07:39:57;;;;;;;3.28;1.65;;;;;;;;;;5067618;22;1065282;-77
2021/10/04 07:42:22;;;;;;;3.33;1.70;;;;;;;;;;5076457;28;20185;-76
2021/10/04 07:44:48;;;;;;;7.70;1.50;;;;;;;;;;5076574;28;20181;-77
2021/10/04 07:47:13;;;;;;;5.65;1.98;;;;;;;;;;5055095;28;20273;-76
2021/10/04 07:49:38;;;;;;;6.03;1.55;;;;;;;;;;5069440;28;20180;-76
2021/10/04 07:52:04;;;;;;;3.45;1.50;;;;;;;;;;5072146;28;20559;-75
2021/10/04 07:54:29;;;;;;;5.63;2.13;;;;;;;;;;5073445;28;20173;-76
2021/10/04 07:56:54;;;;;;;3.28;1.80;;;;;;;;;;5071361;28;20211;-77
2021/10/04 07:59:20;;;;;;;4.65;1.80;;;;;;;;;;5073497;28;20242;-76
2021/10/04 08:01:45;;;;;;;4.65;1.52;;;;;;;;;;5056520;28;20201;-76
2021/10/04 08:04:11;;;;;;;2.92;1.48;;;;;;;;;;5071299;28;20180;-76
2021/10/04 08:06:36;;;;;;;2.83;1.25;;;;;;;;;;5073314;28;20188;-76
2021/10/04 08:09:02;;;;;;;10.77;2.30;;;;;;;;;;5072416;28;20177;-76
2021/10/04 08:11:27;;;;;;;2.95;1.40;;;;;;;;;;5074963;28;20709;-76
2021/10/04 08:13:52;;;;;;;2.85;1.35;;;;;;;;;;5073068;28;20181;-75
2021/10/04 08:16:20;;;;;;;3.38;1.30;;;;;;;;;;5078626;28;20660;-75
2021/10/04 08:18:45;;;;;;;5.50;1.40;;;;;;;;;;5055550;28;20183;-77
2021/10/04 08:21:11;;;;;;;4.17;1.60;;;;;;;;;;5076434;28;20197;-77
2021/10/04 08:23:37;;;;;;;5.88;1.60;;;;;;;;;;5069727;28;20425;-76
2021/10/04 08:26:03;;;;;;;4.72;1.23;;;;;;;;;;5075653;28;20275;-77
2021/10/04 08:28:28;;;;;;;4.50;1.40;;;;;;;;;;5073954;28;20192;-76
2021/10/04 08:30:53;;;;;;;2.97;1.73;;;;;;;;;;5070823;28;20275;-75
2021/10/04 08:33:18;;;;;;;7.10;1.80;;;;;;;;;;5068058;28;20427;-75
2021/10/04 08:35:43;;;;;;;5.68;1.70;;;;;;;;;;5067284;28;20169;-75
2021/10/04 08:38:09;;;;;;;4.57;1.20;;;;;;;;;;5070450;28;20179;-74
2021/10/04 08:40:34;;;;;;;3.40;1.45;;;;;;;;;;5059729;28;20913;-76
2021/10/04 08:42:59;;;;;;;3.78;1.38;;;;;;;;;;5067067;28;20181;-75
2021/10/04 08:45:27;;;;;;;4.07;1.50;;;;;;;;;;5064907;28;20181;-76
2021/10/04 08:47:58;;;;;;;2.80;1.15;;;;;;;;;;5069003;28;20234;-76
2021/10/04 08:50:23;;;;;;;2.53;1.25;;;;;;;;;;5051266;28;20208;-76
2021/10/04 08:52:48;;;;;;;3.53;1.17;;;;;;;;;;5066328;28;20712;-77
2021/10/04 08:55:14;;;;;;;4.57;1.25;;;;;;;;;;5050184;28;20173;-76
2021/10/04 08:57:39;;;;;;;4.25;1.30;;;;;;;;;;5059505;28;20181;-77
2021/10/04 09:00:05;;;;;;;2.60;1.60;;;;;;;;;;5066601;28;20279;-74
2021/10/04 09:02:31;;;;;;;3.58;1.40;;;;;;;;;;5068552;28;20169;-76
2021/10/04 09:05:12;;;;;;;3.97;1.17;;;;;;;;;;5066892;28;20689;-76
2021/10/04 09:07:40;;;;;;;6.53;1.75;;;;;;;;;;5066211;28;20185;-77
2021/10/04 09:10:06;;;;;;;6.10;1.30;;;;;;;;;;5069396;28;20576;-77
2021/10/04 09:12:40;;;;;;;4.28;1.67;;;;;;;;;;5064545;28;20173;-76
2021/10/04 09:15:17;;;;;;;3.30;1.20;;;;;;;;;;5064178;28;20235;-75
2021/10/04 09:17:42;;;;;;;3.88;1.40;;;;;;;;;;5066624;28;20179;-76
2021/10/04 09:20:08;;;;;;;4.65;1.30;;;;;;;;;;5065122;28;20205;-76
2021/10/04 09:22:34;;;;;;;4.10;1.13;;;;;;;;;;5056501;28;20177;-76
2021/10/04 09:24:59;;;;;;;3.78;1.55;;;;;;;;;;5066672;28;20178;-75
2021/10/04 09:27:24;;;;;;;5.00;1.30;;;;;;;;;;5065115;28;20216;-77
2021/10/04 09:29:50;;;;;;;3.83;1.15;;;;;;;;;;5066901;28;20449;-77
2021/10/04 09:32:35;;;;;;;6.45;1.83;;;;;;;;;;5069762;28;20169;-77
2021/10/04 09:35:29;;;;;;;3.22;1.00;;;;;;;;;;5051005;28;20284;-79
2021/10/04 09:37:57;;;;;;;7.25;1.25;;;;;;;;;;5035463;28;20188;-76
2021/10/04 09:40:24;;;;;;;6.85;1.25;;;;;;;;;;5065722;28;20219;-76
2021/10/04 09:42:49;;;;;;;5.90;1.77;;;;;;;;;;5050563;28;20639;-77
2021/10/04 09:45:14;;;;;;;3.75;1.25;;;;;;;;;;5052950;28;20219;-77
2021/10/04 09:47:41;;;;;;;4.63;1.73;;;;;;;;;;5053899;28;20188;-73
2021/10/04 09:50:06;;;;;;;5.10;1.08;;;;;;;;;;5061093;28;21010;-76
2021/10/04 09:52:38;;;;;;;7.35;1.50;;;;;;;;;;5064851;28;20181;-76
2021/10/04 09:55:13;;;;;;;4.65;0.95;;;;;;;;;;5056087;28;20184;-74
2021/10/04 09:57:38;;;;;;;2.97;0.98;;;;;;;;;;5049222;28;20173;-77
2021/10/04 10:00:03;;;;;;;5.25;1.58;;;;;;;;;;5052268;28;20294;-77
2021/10/04 10:02:30;;;;;;;5.03;1.00;;;;;;;;;;5069749;28;20173;-77
2021/10/04 10:04:55;;;;;;;10.68;1.80;;;;;;;;;;5065338;28;20187;-77
2021/10/04 10:07:20;;;;;;;6.60;1.40;;;;;;;;;;5067977;28;20177;-76
2021/10/04 10:09:45;;;;;;;6.53;1.52;;;;;;;;;;5070443;28;20208;-76
2021/10/04 10:12:11;;;;;;;5.32;1.27;;;;;;;;;;5068384;28;20209;-76
2021/10/04 10:14:43;;;;;;;4.88;0.95;;;;;;;;;;5071940;28;20204;-75
2021/10/04 10:17:11;;;;;;;4.30;1.10;;;;;;;;;;5049253;28;20264;-75
2021/10/04 10:19:36;;;;;;;4.07;1.02;;;;;;;;;;5071168;28;20185;-76
2021/10/04 10:22:11;;;;;;;5.10;1.27;;;;;;;;;;5052053;28;20189;-77
2021/10/04 10:24:36;;;;;;;4.80;1.23;;;;;;;;;;5051441;28;20558;-75
2021/10/04 10:27:03;;;;;;;3.72;1.00;;;;;;;;;;5060742;28;20204;-75
2021/10/04 10:29:29;;;;;;;7.53;2.00;;;;;;;;;;5073558;28;20184;-74
2021/10/04 10:31:57;;;;;;;4.60;1.17;;;;;;;;;;5076052;28;20205;-76
2021/10/04 10:34:32;;;;;;;6.40;1.45;;;;;;;;;;5068342;28;20280;-76
2021/10/04 10:36:57;;;;;;;6.15;1.05;;;;;;;;;;5065147;28;20164;-77
2021/10/04 10:39:46;;;;;;;3.35;1.38;;;;;;;;;;5056109;28;20587;-76
2021/10/04 10:42:15;;;;;;;5.97;1.10;;;;;;;;;;5054463;28;20196;-75
2021/10/04 10:44:56;;;;;;;4.78;1.35;;;;;;;;;;5051942;28;20183;-74
2021/10/04 10:47:33;;;;;;;5.35;1.85;;;;;;;;;;5061972;28;20173;-75
2021/10/04 10:50:00;;;;;;;6.32;1.92;;;;;;;;;;5061313;28;20591;-74
2021/10/04 10:52:27;;;;;;;5.82;1.15;;;;;;;;;;5046864;28;20176;-75
2021/10/04 10:54:52;;;;;;;5.70;2.05;;;;;;;;;;5070443;28;20184;-76
2021/10/04 10:57:18;;;;;;;6.22;1.75;;;;;;;;;;5069224;28;20260;-75
2021/10/04 10:59:44;;;;;;;6.95;1.42;;;;;;;;;;5063900;28;20362;-75
2021/10/04 11:02:27;;;;;;;6.93;1.60;;;;;;;;;;5063098;28;20554;-75
2021/10/04 11:04:53;;;;;;;6.10;1.45;;;;;;;;;;5060071;28;20479;-75
2021/10/04 11:07:37;;;;;;;5.47;1.07;;;;;;;;;;5065358;28;20169;-76
2021/10/04 11:10:08;;;;;;;3.97;1.40;;;;;;;;;;5066583;28;20525;-74
2021/10/04 11:12:56;;;;;;;4.28;1.10;;;;;;;;;;5069273;28;20195;-74
2021/10/04 11:15:28;;;;;;;5.85;1.33;;;;;;;;;;5015924;28;20181;-76
2021/10/04 11:17:54;;;;;;;8.02;1.75;;;;;;;;;;5048786;28;20265;-75
2021/10/04 11:20:19;;;;;;;5.28;1.20;;;;;;;;;;5069178;28;20339;-75
2021/10/04 11:22:44;;;;;;;4.78;1.17;;;;;;;;;;5065768;28;20168;-76
2021/10/04 11:25:10;;;;;;;7.05;1.52;;;;;;;;;;5067380;28;20181;-75
2021/10/04 11:27:46;;;;;;;9.80;2.58;;;;;;;;;;5067849;28;20204;-76
2021/10/04 11:30:11;;;;;;;10.15;1.38;;;;;;;;;;5041046;28;20205;-75
2021/10/04 11:32:37;;;;;;;5.55;1.55;;;;;;;;;;5066695;28;20177;-75
2021/10/04 11:35:09;;;;;;;6.95;1.40;;;;;;;;;;5045963;28;20186;-75
2021/10/04 11:37:35;;;;;;;8.20;1.83;;;;;;;;;;5068886;28;20201;-74
2021/10/04 11:40:00;;;;;;;5.53;1.52;;;;;;;;;;5064750;28;20233;-75
2021/10/04 11:42:26;;;;;;;6.80;1.33;;;;;;;;;;5068921;28;20188;-75
2021/10/04 11:44:51;;;;;;;6.18;1.83;;;;;;;;;;5040117;28;20188;-74
2021/10/04 11:47:16;;;;;;;7.90;1.48;;;;;;;;;;5067327;28;20180;-74
2021/10/04 11:49:43;;;;;;;5.47;1.80;;;;;;;;;;5067166;28;20183;-76
2021/10/04 11:52:15;;;;;;;6.85;2.45;;;;;;;;;;5043883;28;20209;-75
2021/10/04 11:54:50;;;;;;;6.35;1.30;;;;;;;;;;5067968;28;20182;-75
2021/10/04 11:57:15;;;;;;;5.63;1.20;;;;;;;;;;5060733;28;20183;-76
2021/10/04 11:59:46;;;;;;;6.75;1.63;;;;;;;;;;5071068;28;20177;-75
2021/10/04 12:02:19;;;;;;;5.28;1.40;;;;;;;;;;5062979;28;20262;-75
2021/10/04 12:04:44;;;;;;;6.38;1.75;;;;;;;;;;5066963;28;20191;-75
2021/10/04 12:07:10;;;;;;;6.85;1.30;;;;;;;;;;5064989;28;20645;-75
2021/10/04 12:09:35;;;;;;;9.05;1.27;;;;;;;;;;5064142;28;20177;-75
2021/10/04 12:12:00;;;;;;;5.75;1.38;;;;;;;;;;5067562;28;20201;-75
2021/10/04 12:14:27;;;;;;;5.53;1.42;;;;;;;;;;5065875;28;20174;-74
2021/10/04 12:16:53;;;;;;;5.18;1.30;;;;;;;;;;5066167;28;20692;-76
2021/10/04 12:19:19;;;;;;;3.83;1.17;;;;;;;;;;5058559;28;20261;-76
2021/10/04 12:21:46;;;;;;;6.93;1.35;;;;;;;;;;5068501;28;20640;-76
2021/10/04 12:24:16;;;;;;;8.75;1.38;;;;;;;;;;5066770;28;20669;-74
2021/10/04 12:26:50;;;;;;;4.45;0.95;;;;;;;;;;5065632;28;20180;-75
2021/10/04 12:29:30;;;;;;;5.00;1.27;;;;;;;;;;5062497;28;20186;-75
2021/10/04 12:31:55;;;;;;;5.10;1.38;;;;;;;;;;5068292;28;20196;-75
2021/10/04 12:34:21;;;;;;;7.93;1.65;;;;;;;;;;5066829;28;20193;-75
2021/10/04 12:36:47;;;;;;;3.05;1.05;;;;;;;;;;5078561;28;20556;-75
2021/10/04 12:39:12;;;;;;;7.97;1.58;;;;;;;;;;5072258;28;20205;-75
2021/10/04 12:41:41;;;;;;;5.53;1.17;;;;;;;;;;5071680;28;20243;-75
2021/10/04 12:44:11;;;;;;;5.85;1.75;;;;;;;;;;5071764;28;20173;-75
2021/10/04 12:46:36;;;;;;;5.35;1.00;;;;;;;;;;5052301;28;20185;-75
2021/10/04 12:49:15;;;;;;;8.13;1.67;;;;;;;;;;5054530;28;20177;-76
2021/10/04 12:51:42;;;;;;;1.73;0.70;;;;;;;;;;5049654;28;20205;-75
2021/10/04 12:54:08;;;;;;;5.88;1.58;;;;;;;;;;5071636;28;20230;-75
2021/10/04 12:56:35;;;;;;;5.57;1.20;;;;;;;;;;5067581;28;20653;-75
2021/10/04 12:59:10;;;;;;;5.88;1.10;;;;;;;;;;5051576;28;20173;-75
2021/10/04 13:01:36;;;;;;;3.50;1.08;;;;;;;;;;5060500;28;20304;-75
2021/10/04 13:04:03;;;;;;;5.55;1.13;;;;;;;;;;5064574;28;20314;-76
2021/10/04 13:06:33;;;;;;;3.72;0.90;;;;;;;;;;5049301;28;20207;-75
2021/10/04 13:08:59;;;;;;;4.43;1.20;;;;;;;;;;5070380;28;20192;-74
2021/10/04 13:11:24;;;;;;;5.82;1.08;;;;;;;;;;5070967;28;20598;-74
2021/10/04 13:13:50;;;;;;;4.60;1.40;;;;;;;;;;5066350;28;20177;-74
2021/10/04 13:16:16;;;;;;;6.75;1.50;;;;;;;;;;5071826;28;20657;-75
2021/10/04 13:18:41;;;;;;;6.03;1.38;;;;;;;;;;5067364;28;20270;-75
2021/10/04 13:21:07;;;;;;;4.47;1.27;;;;;;;;;;5067488;28;20201;-75
2021/10/04 13:23:32;;;;;;;4.75;1.13;;;;;;;;;;5071150;28;20172;-76
2021/10/04 13:25:58;;;;;;;5.63;1.02;;;;;;;;;;5070135;28;20854;-74
2021/10/04 13:28:24;;;;;;;3.53;1.10;;;;;;;;;;5059352;28;20194;-74
2021/10/04 13:30:49;;;;;;;6.05;1.35;;;;;;;;;;5063912;28;20211;-75
2021/10/04 13:33:14;;;;;;;4.18;1.02;;;;;;;;;;5064723;28;20181;-75
2021/10/04 13:35:40;;;;;;;4.13;1.10;;;;;;;;;;5063935;28;20180;-75
2021/10/04 13:38:05;;;;;;;4.18;1.08;;;;;;;;;;5068510;28;21009;-75
2021/10/04 13:40:33;;;;;;;3.57;1.10;;;;;;;;;;5056044;23;20391;-71
2021/10/04 13:42:58;;;;;;;6.22;1.60;;;;;;;;;;5047201;28;20501;-73
2021/10/04 13:45:23;;;;;;;4.87;1.50;;;;;;;;;;5043522;28;20184;-73
2021/10/04 13:47:48;;;;;;;4.22;0.98;;;;;;;;;;5048149;28;20422;-71
2021/10/04 13:50:13;;;;;;;6.27;1.67;;;;;;;;;;5049408;28;20205;-72
2021/10/04 13:52:39;;;;;;;5.70;1.10;;;;;;;;;;5071525;28;20468;-71
2021/10/04 13:55:05;;;;;;;5.30;1.08;;;;;;;;;;5069999;28;20242;-71
2021/10/04 13:57:30;;;;;;;4.80;1.10;;;;;;;;;;5065714;28;20654;-73
2021/10/04 13:59:55;;;;;;;5.72;1.13;;;;;;;;;;5064142;28;20234;-71
2021/10/04 14:02:22;;;;;;;4.63;1.13;;;;;;;;;;5062416;28;20177;-72
2021/10/04 14:04:47;;;;;;;5.20;1.30;;;;;;;;;;5064270;28;20780;-71
2021/10/04 14:07:12;;;;;;;3.30;1.15;;;;;;;;;;5065199;28;20174;-71
2021/10/04 14:09:37;;;;;;;2.90;1.47;;;;;;;;;;5070953;28;20222;-71
2021/10/04 14:12:03;;;;;;;3.37;1.27;;;;;;;;;;5062608;28;20857;-71
2021/10/04 14:14:28;;;;;;;12.52;1.58;;;;;;;;;;5068805;28;20421;-73
2021/10/04 14:16:53;;;;;;;7.03;1.50;;;;;;;;;;5065090;28;20173;-71
2021/10/04 14:19:18;;;;;;;9.10;1.30;;;;;;;;;;5064105;28;20173;-71
2021/10/04 14:21:44;;;;;;;5.10;0.93;;;;;;;;;;5064050;28;20204;-71
2021/10/04 14:24:09;;;;;;;5.70;1.08;;;;;;;;;;5064577;28;20518;-71
2021/10/04 14:26:34;;;;;;;3.43;0.90;;;;;;;;;;5063389;28;20276;-72
2021/10/04 14:29:00;;;;;;;6.37;1.33;;;;;;;;;;5065786;28;20486;-72
2021/10/04 14:31:25;;;;;;;6.57;1.00;;;;;;;;;;5061575;28;20556;-71
2021/10/04 14:33:50;;;;;;;5.43;1.30;;;;;;;;;;5058315;28;20185;-72
2021/10/04 14:36:15;;;;;;;7.78;0.90;;;;;;;;;;5068089;28;20417;-71
2021/10/04 14:38:40;;;;;;;4.87;1.27;;;;;;;;;;5066288;28;20181;-72